Time;durP1;ratioP1;P1;durP2;ratioP2;P2;SDS_P1;SDS_P2;PMS_P1;PMS_P2;Temp;Humidity;BMP_temperature;BMP_pressure;BME280_temperature;BME280_humidity;BME280_pressure;Samples;Min_cycle;Max_cycle;Signal;HPM_P1;HPM_P2
2023/07/13 00:02:00;;;;;;;;;;;11.80;99.90;;;;;;5094466;28;20365;-68
2023/07/13 00:04:26;;;;;;;;;;;11.90;99.90;;;;;;5094663;28;19908;-68
2023/07/13 00:06:53;;;;;;;;;;;12.00;99.90;;;;;;5094712;28;19915;-68
2023/07/13 00:09:21;;;;;;;;;;;12.10;99.90;;;;;;5094209;28;19958;-69
2023/07/13 00:11:52;;;;;;;;;;;12.10;99.90;;;;;;5094663;28;19912;-68
2023/07/13 00:14:19;;;;;;;;;;;12.30;99.90;;;;;;5094852;28;20254;-68
2023/07/13 00:16:46;;;;;;;;;;;12.40;99.90;;;;;;5094420;28;20019;-68
2023/07/13 00:19:13;;;;;;;;;;;12.50;99.90;;;;;;5094203;28;19909;-68
2023/07/13 00:21:40;;;;;;;;;;;12.50;99.90;;;;;;5094248;28;20331;-68
2023/07/13 00:24:08;;;;;;;;;;;12.70;99.90;;;;;;5093207;28;19915;-69
2023/07/13 00:26:34;;;;;;;;;;;12.80;99.90;;;;;;5094133;28;19912;-68
2023/07/13 00:29:01;;;;;;;;;;;12.90;99.90;;;;;;5093858;28;19924;-68
2023/07/13 00:31:28;;;;;;;;;;;12.90;99.90;;;;;;5094048;28;19967;-66
2023/07/13 00:33:54;;;;;;;;;;;13.00;99.90;;;;;;5094038;28;20024;-67
2023/07/13 00:36:21;;;;;;;;;;;13.20;99.90;;;;;;5094065;28;19916;-67
2023/07/13 00:38:48;;;;;;;;;;;13.30;99.90;;;;;;5093872;28;19908;-68
2023/07/13 00:41:14;;;;;;;;;;;13.30;99.90;;;;;;5093597;28;20283;-68
2023/07/13 00:43:50;;;;;;;;;;;13.50;99.90;;;;;;5110701;27;19916;-67
2023/07/13 00:46:19;;;;;;;;;;;13.50;99.90;;;;;;5110769;28;19912;-67
2023/07/13 00:48:47;;;;;;;;;;;13.70;99.90;;;;;;5110733;28;19915;-68
2023/07/13 00:51:15;;;;;;;;;;;13.70;99.90;;;;;;5110644;28;19915;-65
2023/07/13 00:53:42;;;;;;;;;;;13.80;99.90;;;;;;5110502;28;19954;-66
2023/07/13 00:56:08;;;;;;;;;;;13.80;99.90;;;;;;5110364;28;19908;-65
2023/07/13 00:58:35;;;;;;;;;;;13.90;99.90;;;;;;5110429;28;20382;-68
2023/07/13 01:01:02;;;;;;;;;;;14.00;99.90;;;;;;5110215;28;19999;-65
2023/07/13 01:03:29;;;;;;;;;;;14.10;99.90;;;;;;5110267;28;20380;-66
2023/07/13 01:05:56;;;;;;;;;;;14.20;99.90;;;;;;5110260;28;19908;-67
2023/07/13 01:08:23;;;;;;;;;;;14.20;99.90;;;;;;5110314;28;19908;-64
2023/07/13 01:10:57;;;;;;;;;;;14.40;99.90;;;;;;5109985;28;19998;-65
2023/07/13 01:13:24;;;;;;;;;;;14.50;99.90;;;;;;5110170;28;19950;-67
2023/07/13 01:15:52;;;;;;;;;;;14.50;99.90;;;;;;5110192;28;19908;-65
2023/07/13 01:18:25;;;;;;;;;;;14.70;99.90;;;;;;5110015;28;19908;-65
2023/07/13 01:20:53;;;;;;;;;;;14.80;99.90;;;;;;5110212;28;20371;-64
2023/07/13 01:23:20;;;;;;;;;;;14.90;99.90;;;;;;5108588;28;19931;-67
2023/07/13 01:25:47;;;;;;;;;;;15.10;99.90;;;;;;5109838;28;20191;-66
2023/07/13 01:28:16;;;;;;;;;;;15.20;99.90;;;;;;5109941;28;20362;-67
2023/07/13 01:30:45;;;;;;;;;;;15.40;99.90;;;;;;5109784;28;19908;-67
2023/07/13 01:33:16;;;;;;;;;;;15.50;99.90;;;;;;5109917;28;19914;-67
2023/07/13 01:35:43;;;;;;;;;;;15.60;99.90;;;;;;5109751;28;20279;-66
2023/07/13 01:38:11;;;;;;;;;;;15.80;99.90;;;;;;5109646;28;19973;-65
2023/07/13 01:40:38;;;;;;;;;;;15.80;99.90;;;;;;5109574;28;19912;-65
2023/07/13 01:43:05;;;;;;;;;;;15.90;99.60;;;;;;5124136;28;19921;-66
2023/07/13 01:45:32;;;;;;;;;;;16.10;99.20;;;;;;5129892;28;20380;-67
2023/07/13 01:47:59;;;;;;;;;;;16.20;98.70;;;;;;5130065;28;19907;-67
2023/07/13 01:50:25;;;;;;;;;;;16.30;98.20;;;;;;5129905;28;19962;-67
2023/07/13 01:52:53;;;;;;;;;;;16.30;98.10;;;;;;5129925;28;20006;-67
2023/07/13 01:55:20;;;;;;;;;;;16.40;97.60;;;;;;5115589;28;19908;-67
2023/07/13 01:57:46;;;;;;;;;;;16.50;97.40;;;;;;5116012;28;19908;-69
2023/07/13 02:00:14;;;;;;;;;;;16.60;97.00;;;;;;5116044;28;20025;-68
2023/07/13 02:02:40;;;;;;;;;;;16.60;97.10;;;;;;5115760;28;19920;-69
2023/07/13 02:05:07;;;;;;;;;;;16.80;96.60;;;;;;5115887;28;20389;-67
2023/07/13 02:07:34;;;;;;;;;;;16.80;96.40;;;;;;5116119;28;19908;-66
2023/07/13 02:10:01;;;;;;;;;;;16.90;96.70;;;;;;5115522;28;19961;-67
2023/07/13 02:12:27;;;;;;;;;;;17.10;96.50;;;;;;5115852;28;19907;-66
2023/07/13 02:14:54;;;;;;;;;;;17.20;96.10;;;;;;5115703;28;19908;-65
2023/07/13 02:17:21;;;;;;;;;;;17.10;96.20;;;;;;5115556;28;19933;-65
2023/07/13 02:19:47;;;;;;;;;;;17.20;96.10;;;;;;5115528;28;20291;-67
2023/07/13 02:22:14;;;;;;;;;;;17.30;95.60;;;;;;5115637;28;20283;-67
2023/07/13 02:24:41;;;;;;;;;;;17.20;95.10;;;;;;5115339;28;19918;-68
2023/07/13 02:27:07;;;;;;;;;;;17.20;95.10;;;;;;5115364;28;19935;-65
2023/07/13 02:29:34;;;;;;;;;;;17.20;95.50;;;;;;5115237;28;20433;-67
2023/07/13 02:32:01;;;;;;;;;;;17.20;95.20;;;;;;5115200;28;20328;-67
2023/07/13 02:34:27;;;;;;;;;;;17.20;95.10;;;;;;5115401;28;20271;-67
2023/07/13 02:36:54;;;;;;;;;;;17.30;94.70;;;;;;5115287;28;19947;-68
2023/07/13 02:39:21;;;;;;;;;;;17.30;94.80;;;;;;5115249;28;19916;-67
2023/07/13 02:41:48;;;;;;;;;;;17.40;94.60;;;;;;5115079;28;19920;-68
2023/07/13 02:44:15;;;;;;;;;;;17.80;94.60;;;;;;5114975;28;19908;-67
2023/07/13 02:46:41;;;;;;;;;;;18.30;93.90;;;;;;5115124;28;19908;-67
2023/07/13 02:49:08;;;;;;;;;;;18.70;93.60;;;;;;5115074;28;19930;-65
2023/07/13 02:51:35;;;;;;;;;;;18.80;93.10;;;;;;5115089;28;19987;-68
2023/07/13 02:54:02;;;;;;;;;;;18.90;92.60;;;;;;5114891;28;19908;-68
2023/07/13 02:56:30;;;;;;;;;;;19.10;92.50;;;;;;5115081;28;20014;-65
2023/07/13 02:58:57;;;;;;;;;;;19.60;92.20;;;;;;5115096;28;19914;-67
2023/07/13 03:01:24;;;;;;;;;;;20.20;91.40;;;;;;5114615;28;19915;-65
2023/07/13 03:03:52;;;;;;;;;;;21.10;89.10;;;;;;5114613;28;19908;-68
2023/07/13 03:06:19;;;;;;;;;;;21.70;87.10;;;;;;5113778;28;20280;-66
2023/07/13 03:08:46;;;;;;;;;;;22.10;86.70;;;;;;5114777;28;19947;-68
2023/07/13 03:11:14;;;;;;;;;;;22.40;83.70;;;;;;5114709;28;19908;-68
2023/07/13 03:13:41;;;;;;;;;;;22.40;83.00;;;;;;5114373;28;20338;-65
2023/07/13 03:16:09;;;;;;;;;;;23.00;82.70;;;;;;5096334;28;19954;-68
2023/07/13 03:18:36;;;;;;;;;;;23.70;79.20;;;;;;5114632;28;19933;-67
2023/07/13 03:21:03;;;;;;;;;;;24.20;79.00;;;;;;5114505;28;19908;-65
2023/07/13 03:23:30;;;;;;;;;;;24.30;76.50;;;;;;5114406;28;19916;-66
2023/07/13 03:26:17;;;;;;;;;;;24.20;76.10;;;;;;5114447;28;19908;-66
2023/07/13 03:28:43;;;;;;;;;;;24.40;76.60;;;;;;5113856;28;19908;-68
2023/07/13 03:31:12;;;;;;;;;;;24.70;75.90;;;;;;5114234;28;20272;-67
2023/07/13 03:33:39;;;;;;;;;;;24.80;75.60;;;;;;5114386;28;20017;-68
2023/07/13 03:36:08;;;;;;;;;;;25.20;74.60;;;;;;5113906;28;19994;-65
2023/07/13 03:38:35;;;;;;;;;;;25.20;74.40;;;;;;5113949;28;19930;-67
2023/07/13 03:41:01;;;;;;;;;;;25.20;74.40;;;;;;5114013;28;19908;-68
2023/07/13 03:43:28;;;;;;;;;;;25.40;73.50;;;;;;5114019;28;20388;-66
2023/07/13 03:45:55;;;;;;;;;;;26.70;71.70;;;;;;5114089;28;19912;-67
2023/07/13 03:48:22;;;;;;;;;;;28.50;69.10;;;;;;5114016;28;19908;-67
2023/07/13 03:50:52;;;;;;;;;;;30.00;66.90;;;;;;5114220;28;20350;-66
2023/07/13 03:53:19;;;;;;;;;;;31.30;63.50;;;;;;5113833;28;19914;-66
2023/07/13 03:55:45;;;;;;;;;;;31.80;61.10;;;;;;5110918;28;19907;-68
2023/07/13 03:58:26;;;;;;;;;;;32.70;59.80;;;;;;5111445;28;20002;-67
2023/07/13 04:00:54;;;;;;;;;;;32.70;58.60;;;;;;5113494;28;20372;-67
2023/07/13 04:03:21;;;;;;;;;;;33.10;57.40;;;;;;5113700;28;19926;-65
2023/07/13 04:05:47;;;;;;;;;;;33.50;56.00;;;;;;5095236;28;19914;-66
2023/07/13 04:08:14;;;;;;;;;;;33.50;55.10;;;;;;5113475;28;19907;-67
2023/07/13 04:10:41;;;;;;;;;;;33.40;55.20;;;;;;5113649;28;19989;-68
2023/07/13 04:13:08;;;;;;;;;;;33.10;55.20;;;;;;5113664;28;20372;-68
2023/07/13 04:15:35;;;;;;;;;;;32.80;55.40;;;;;;5113803;28;19908;-68
2023/07/13 04:18:03;;;;;;;;;;;32.70;54.50;;;;;;5113541;28;20025;-67
2023/07/13 04:20:30;;;;;;;;;;;31.70;55.30;;;;;;5113360;28;19977;-66
2023/07/13 04:22:57;;;;;;;;;;;30.20;56.60;;;;;;5095297;28;19924;-69
2023/07/13 04:25:24;;;;;;;;;;;28.40;58.70;;;;;;5113451;28;19908;-68
2023/07/13 04:27:51;;;;;;;;;;;26.80;60.00;;;;;;5113507;28;19961;-68
2023/07/13 04:30:18;;;;;;;;;;;25.50;61.80;;;;;;5113340;28;20692;-68
2023/07/13 04:32:45;;;;;;;;;;;24.50;64.30;;;;;;5113423;28;20379;-69
2023/07/13 04:35:13;;;;;;;;;;;23.40;65.80;;;;;;5113305;28;19918;-68
2023/07/13 04:37:40;;;;;;;;;;;22.60;67.60;;;;;;5113610;28;19960;-68
2023/07/13 04:40:11;;;;;;;;;;;21.90;68.20;;;;;;5113500;28;19946;-68
2023/07/13 04:42:38;;;;;;;;;;;21.50;69.90;;;;;;5113173;28;19919;-64
2023/07/13 04:45:06;;;;;;;;;;;21.10;70.90;;;;;;5113474;28;19923;-64
2023/07/13 04:47:33;;;;;;;;;;;20.80;71.80;;;;;;5113337;28;19914;-66
2023/07/13 04:50:00;;;;;;;;;;;20.70;72.50;;;;;;5113388;28;19908;-66
2023/07/13 04:52:26;;;;;;;;;;;20.70;73.30;;;;;;5113379;28;19908;-63
2023/07/13 04:54:53;;;;;;;;;;;20.60;73.40;;;;;;5113032;28;20248;-67
2023/07/13 04:57:20;;;;;;;;;;;20.60;73.40;;;;;;5113060;28;20483;-67
2023/07/13 04:59:47;;;;;;;;;;;20.70;73.30;;;;;;5113118;28;19908;-67
2023/07/13 05:02:13;;;;;;;;;;;20.70;73.10;;;;;;5112929;28;19915;-67
2023/07/13 05:04:40;;;;;;;;;;;20.70;72.30;;;;;;5112989;28;20352;-64
2023/07/13 05:07:07;;;;;;;;;;;20.60;72.40;;;;;;5094783;28;19974;-66
2023/07/13 05:09:34;;;;;;;;;;;20.60;72.60;;;;;;5094707;28;19995;-64
2023/07/13 05:12:00;;;;;;;;;;;20.60;73.10;;;;;;5113043;28;19916;-65
2023/07/13 05:14:27;;;;;;;;;;;20.60;72.90;;;;;;5112938;28;20376;-65
2023/07/13 05:16:54;;;;;;;;;;;20.80;73.00;;;;;;5112847;28;19961;-64
2023/07/13 05:19:21;;;;;;;;;;;21.30;73.00;;;;;;5112970;28;19908;-64
2023/07/13 05:21:48;;;;;;;;;;;21.70;70.70;;;;;;5094820;28;19915;-69
2023/07/13 05:24:15;;;;;;;;;;;21.90;71.10;;;;;;5113150;28;19911;-69
2023/07/13 05:26:41;;;;;;;;;;;21.80;70.40;;;;;;5113097;28;19954;-68
2023/07/13 05:29:08;;;;;;;;;;;21.50;69.10;;;;;;5114362;28;19960;-69
2023/07/13 05:31:35;;;;;;;;;;;21.30;71.40;;;;;;5098133;28;19908;-65
2023/07/13 05:34:02;;;;;;;;;;;21.30;71.60;;;;;;5116634;28;20448;-69
2023/07/13 05:36:29;;;;;;;;;;;21.30;72.90;;;;;;5116850;28;20056;-69
2023/07/13 05:38:56;;;;;;;;;;;21.60;72.00;;;;;;5116747;28;20462;-65
2023/07/13 05:41:23;;;;;;;;;;;21.90;72.20;;;;;;5116345;28;19958;-67
2023/07/13 05:43:49;;;;;;;;;;;22.60;70.70;;;;;;5116292;28;19915;-68
2023/07/13 05:46:16;;;;;;;;;;;23.20;69.20;;;;;;5116485;28;19908;-68
2023/07/13 05:48:43;;;;;;;;;;;23.60;66.50;;;;;;5116606;28;19908;-64
2023/07/13 05:51:10;;;;;;;;;;;23.60;66.80;;;;;;5116388;28;19930;-68
2023/07/13 05:53:36;;;;;;;;;;;23.70;67.40;;;;;;5116559;28;19908;-64
2023/07/13 05:56:11;;;;;;;;;;;23.50;66.80;;;;;;5116254;28;19907;-69
2023/07/13 05:58:38;;;;;;;;;;;23.50;67.40;;;;;;5116024;28;19912;-66
2023/07/13 06:01:06;;;;;;;;;;;23.70;66.00;;;;;;5116262;28;19904;-68
2023/07/13 06:03:33;;;;;;;;;;;24.00;67.10;;;;;;5116188;28;19994;-67
2023/07/13 06:06:00;;;;;;;;;;;24.20;68.00;;;;;;5116171;28;19908;-67
2023/07/13 06:08:27;;;;;;;;;;;24.40;66.90;;;;;;5116154;28;19953;-68
2023/07/13 06:10:54;;;;;;;;;;;24.90;67.40;;;;;;5115946;28;19976;-64
2023/07/13 06:13:21;;;;;;;;;;;25.00;66.90;;;;;;5097367;28;19918;-66
2023/07/13 06:15:50;;;;;;;;;;;25.10;68.20;;;;;;5097772;28;20371;-68
2023/07/13 06:18:17;;;;;;;;;;;24.90;68.10;;;;;;5115963;28;20348;-68
2023/07/13 06:20:44;;;;;;;;;;;25.10;68.90;;;;;;5115826;28;20015;-67
2023/07/13 06:23:10;;;;;;;;;;;25.00;68.60;;;;;;5115811;28;20006;-66
2023/07/13 06:25:37;;;;;;;;;;;24.70;69.20;;;;;;5115737;28;19959;-65
2023/07/13 06:28:04;;;;;;;;;;;24.10;70.40;;;;;;5115524;28;20350;-64
2023/07/13 06:30:31;;;;;;;;;;;23.20;72.20;;;;;;5115506;28;19908;-64
2023/07/13 06:32:58;;;;;;;;;;;22.50;74.30;;;;;;5115471;28;19915;-66
2023/07/13 06:35:25;;;;;;;;;;;21.80;76.30;;;;;;5115577;28;20272;-67
2023/07/13 06:37:51;;;;;;;;;;;21.10;78.10;;;;;;5115134;28;19908;-66
2023/07/13 06:40:18;;;;;;;;;;;20.60;79.90;;;;;;5114962;28;19907;-65
2023/07/13 06:42:45;;;;;;;;;;;20.20;81.50;;;;;;5115375;28;19927;-66
2023/07/13 06:45:11;;;;;;;;;;;19.80;83.10;;;;;;5115347;28;19922;-68
2023/07/13 06:47:38;;;;;;;;;;;19.50;84.50;;;;;;5115455;28;20290;-66
2023/07/13 06:50:05;;;;;;;;;;;19.10;86.00;;;;;;5115228;28;19914;-70
2023/07/13 06:52:31;;;;;;;;;;;18.70;87.70;;;;;;5114954;28;19996;-67
2023/07/13 06:54:58;;;;;;;;;;;18.40;89.00;;;;;;5115102;28;19914;-68
2023/07/13 06:57:25;;;;;;;;;;;18.10;90.10;;;;;;5114995;28;19908;-67
2023/07/13 06:59:51;;;;;;;;;;;17.90;90.60;;;;;;5115061;28;19939;-68
2023/07/13 07:02:18;;;;;;;;;;;17.70;91.10;;;;;;5114722;28;20380;-66
2023/07/13 07:04:45;;;;;;;;;;;17.50;91.60;;;;;;5115189;28;19915;-68
2023/07/13 07:07:11;;;;;;;;;;;17.30;91.90;;;;;;5114972;28;19937;-68
2023/07/13 07:09:38;;;;;;;;;;;17.10;92.40;;;;;;5114848;28;20315;-69
2023/07/13 07:12:05;;;;;;;;;;;17.00;92.90;;;;;;5114993;28;19912;-69
2023/07/13 07:14:32;;;;;;;;;;;16.90;93.40;;;;;;5114609;28;19951;-69
2023/07/13 07:16:59;;;;;;;;;;;16.70;93.80;;;;;;5114787;28;19908;-69
2023/07/13 07:19:25;;;;;;;;;;;16.60;94.20;;;;;;5114698;28;19907;-69
2023/07/13 07:21:52;;;;;;;;;;;16.40;94.60;;;;;;5114632;28;19977;-68
2023/07/13 07:24:19;;;;;;;;;;;16.30;95.20;;;;;;5114566;28;20365;-70
2023/07/13 07:26:45;;;;;;;;;;;16.20;95.50;;;;;;5114700;28;20018;-67
2023/07/13 07:29:12;;;;;;;;;;;16.00;96.00;;;;;;5114436;28;20306;-67
2023/07/13 07:31:39;;;;;;;;;;;16.00;96.50;;;;;;5114535;28;19907;-67
2023/07/13 07:34:05;;;;;;;;;;;15.90;97.00;;;;;;5114459;28;19914;-67
2023/07/13 07:36:32;;;;;;;;;;;15.80;97.50;;;;;;5114606;28;19907;-70
2023/07/13 07:38:59;;;;;;;;;;;15.70;97.90;;;;;;5095727;28;19915;-63
2023/07/13 07:41:26;;;;;;;;;;;15.70;98.20;;;;;;5114019;28;19991;-67
2023/07/13 07:43:52;;;;;;;;;;;15.60;98.40;;;;;;5114057;28;19919;-68
2023/07/13 07:46:19;;;;;;;;;;;15.50;98.80;;;;;;5114140;28;19969;-66
2023/07/13 07:48:45;;;;;;;;;;;15.40;99.10;;;;;;5113812;28;19907;-68
2023/07/13 07:51:12;;;;;;;;;;;15.30;99.40;;;;;;5113237;28;19912;-69
2023/07/13 07:53:39;;;;;;;;;;;15.30;99.80;;;;;;5114066;28;19938;-67
2023/07/13 07:56:06;;;;;;;;;;;15.20;99.90;;;;;;5095765;28;20376;-68
2023/07/13 07:58:32;;;;;;;;;;;15.10;99.90;;;;;;5113890;28;19907;-68
2023/07/13 08:01:05;;;;;;;;;;;15.10;99.90;;;;;;5113572;28;19908;-67
2023/07/13 08:03:32;;;;;;;;;;;15.10;99.90;;;;;;5095343;28;20413;-68
2023/07/13 08:05:59;;;;;;;;;;;15.10;99.90;;;;;;5113805;28;20384;-65
2023/07/13 08:08:25;;;;;;;;;;;15.00;99.90;;;;;;5113854;28;19908;-68
2023/07/13 08:10:53;;;;;;;;;;;15.00;99.90;;;;;;5113928;28;19914;-66
2023/07/13 08:13:19;;;;;;;;;;;14.90;99.90;;;;;;5113807;28;19915;-68
2023/07/13 08:15:50;;;;;;;;;;;14.80;99.90;;;;;;5113710;28;19930;-68
2023/07/13 08:18:17;;;;;;;;;;;14.80;99.90;;;;;;5113656;28;19907;-68
2023/07/13 08:20:44;;;;;;;;;;;14.70;99.90;;;;;;5113434;28;20415;-68
2023/07/13 08:23:11;;;;;;;;;;;14.70;99.90;;;;;;5113207;28;19966;-67
2023/07/13 08:25:38;;;;;;;;;;;14.60;99.90;;;;;;5113468;28;19912;-67
2023/07/13 08:28:05;;;;;;;;;;;14.50;99.90;;;;;;5113492;28;20006;-67
2023/07/13 08:30:31;;;;;;;;;;;14.50;99.90;;;;;;5113218;28;20423;-67
2023/07/13 08:32:58;;;;;;;;;;;14.30;99.90;;;;;;5095232;28;19984;-66
2023/07/13 08:35:25;;;;;;;;;;;14.30;99.90;;;;;;5113589;28;19907;-68
2023/07/13 08:37:52;;;;;;;;;;;14.20;99.90;;;;;;5113347;28;19907;-67
2023/07/13 08:40:20;;;;;;;;;;;14.20;99.90;;;;;;5113231;28;19967;-68
2023/07/13 08:42:51;;;;;;;;;;;14.20;99.90;;;;;;5113187;28;19920;-70
2023/07/13 08:45:22;;;;;;;;;;;14.10;99.90;;;;;;5113470;28;20390;-67
2023/07/13 08:47:54;;;;;;;;;;;14.00;99.90;;;;;;5095190;28;20319;-67
2023/07/13 08:50:24;;;;;;;;;;;14.00;99.90;;;;;;5113677;28;20339;-67
2023/07/13 08:52:51;;;;;;;;;;;13.90;99.90;;;;;;5113231;28;20375;-68
2023/07/13 08:55:22;;;;;;;;;;;13.80;99.90;;;;;;5113335;28;19977;-68
2023/07/13 08:57:53;;;;;;;;;;;13.80;99.90;;;;;;5113293;28;19943;-66
2023/07/13 09:00:24;;;;;;;;;;;13.70;99.90;;;;;;5094768;28;20330;-69
2023/07/13 09:02:54;;;;;;;;;;;13.70;99.90;;;;;;5113002;28;20022;-69
2023/07/13 09:05:26;;;;;;;;;;;13.60;99.90;;;;;;5116524;28;19912;-67
2023/07/13 09:08:10;;;;;;;;;;;13.60;99.90;;;;;;5117185;28;19908;-68
2023/07/13 09:10:47;;;;;;;;;;;13.50;99.90;;;;;;5117014;28;19915;-68
2023/07/13 09:13:17;;;;;;;;;;;13.50;99.90;;;;;;5116813;28;19934;-65
2023/07/13 09:15:45;;;;;;;;;;;13.40;99.90;;;;;;5117240;28;19947;-67
2023/07/13 09:18:24;;;;;;;;;;;13.30;99.90;;;;;;5117101;28;19915;-70
2023/07/13 09:20:56;;;;;;;;;;;13.30;99.90;;;;;;5117097;28;19911;-70
2023/07/13 09:23:24;;;;;;;;;;;13.30;99.90;;;;;;5116968;28;19916;-65
2023/07/13 09:25:55;;;;;;;;;;;13.30;99.90;;;;;;5098599;28;19919;-67
2023/07/13 09:28:27;;;;;;;;;;;13.20;99.90;;;;;;5098493;28;19908;-65
2023/07/13 09:31:02;;;;;;;;;;;13.20;99.90;;;;;;5116879;28;20389;-65
2023/07/13 09:33:30;;;;;;;;;;;13.10;99.90;;;;;;5116953;28;20010;-65
2023/07/13 09:35:58;;;;;;;;;;;13.10;99.90;;;;;;5098623;28;19908;-65
2023/07/13 09:38:25;;;;;;;;;;;13.10;99.90;;;;;;5116763;28;19908;-68
2023/07/13 09:41:10;;;;;;;;;;;13.00;99.90;;;;;;5116406;28;19930;-68
2023/07/13 09:43:37;;;;;;;;;;;12.90;99.90;;;;;;5116523;28;19920;-67
2023/07/13 09:46:04;;;;;;;;;;;12.90;99.90;;;;;;5116574;28;19998;-65
2023/07/13 09:48:35;;;;;;;;;;;12.80;99.90;;;;;;5116383;28;19915;-64
2023/07/13 09:51:15;;;;;;;;;;;12.80;99.90;;;;;;5116315;28;19908;-67
2023/07/13 09:53:43;;;;;;;;;;;12.80;99.90;;;;;;5116294;28;19908;-67
2023/07/13 09:56:23;;;;;;;;;;;12.70;99.90;;;;;;5098073;28;20279;-68
2023/07/13 09:58:50;;;;;;;;;;;12.70;99.90;;;;;;5116351;28;20006;-65
2023/07/13 10:01:31;;;;;;;;;;;12.60;99.90;;;;;;5116275;28;19954;-64
2023/07/13 10:03:57;;;;;;;;;;;12.60;99.90;;;;;;5116186;28;20413;-68
2023/07/13 10:06:26;;;;;;;;;;;12.60;99.90;;;;;;5115912;28;19915;-65
2023/07/13 10:08:53;;;;;;;;;;;12.60;99.90;;;;;;5116026;28;19904;-66
2023/07/13 10:11:22;;;;;;;;;;;12.50;99.90;;;;;;5115982;28;19932;-67
2023/07/13 10:13:55;;;;;;;;;;;12.50;99.90;;;;;;5115837;28;19908;-64
2023/07/13 10:16:22;;;;;;;;;;;12.40;99.90;;;;;;5115519;28;19958;-68
2023/07/13 10:19:07;;;;;;;;;;;12.40;99.90;;;;;;5116142;28;20360;-68
2023/07/13 10:21:35;;;;;;;;;;;12.30;99.90;;;;;;5097443;28;19908;-69
2023/07/13 10:24:19;;;;;;;;;;;12.30;99.90;;;;;;5097652;28;20376;-68
2023/07/13 10:27:09;;;;;;;;;;;12.30;99.90;;;;;;5115937;28;19908;-66
2023/07/13 10:29:42;;;;;;;;;;;12.30;99.90;;;;;;5107466;28;19914;-65
2023/07/13 10:32:12;;;;;;;;;;;12.20;99.90;;;;;;5115705;28;19908;-68
2023/07/13 10:34:40;;;;;;;;;;;12.20;99.90;;;;;;5097354;28;19951;-65
2023/07/13 10:37:16;;;;;;;;;;;12.10;99.90;;;;;;5115767;28;19933;-68
2023/07/13 10:39:42;;;;;;;;;;;12.10;99.90;;;;;;5115329;28;19908;-67
2023/07/13 10:42:12;;;;;;;;;;;12.10;99.90;;;;;;5115332;28;19926;-64
2023/07/13 10:44:39;;;;;;;;;;;12.00;99.90;;;;;;5097079;28;19908;-68
2023/07/13 10:47:08;;;;;;;;;;;12.10;99.90;;;;;;5115354;28;19909;-69
2023/07/13 10:49:36;;;;;;;;;;;12.10;99.90;;;;;;5096779;28;19992;-63
2023/07/13 10:52:03;;;;;;;;;;;11.90;99.90;;;;;;5115138;28;19953;-68
2023/07/13 10:54:29;;;;;;;;;;;11.90;99.90;;;;;;5115232;28;19908;-68
2023/07/13 10:57:16;;;;;;;;;;;11.90;99.90;;;;;;5115213;28;19965;-68
2023/07/13 10:59:46;;;;;;;;;;;11.90;99.90;;;;;;5114917;28;19953;-68
2023/07/13 11:02:21;;;;;;;;;;;11.90;99.90;;;;;;5114967;28;19915;-68
2023/07/13 11:04:49;;;;;;;;;;;11.80;99.90;;;;;;5115103;28;19908;-67
2023/07/13 11:07:23;;;;;;;;;;;11.80;99.90;;;;;;5114975;28;19958;-67
2023/07/13 11:09:51;;;;;;;;;;;11.80;99.90;;;;;;5114916;28;19991;-68
2023/07/13 11:12:25;;;;;;;;;;;11.70;99.90;;;;;;5114703;28;19908;-68
2023/07/13 11:14:54;;;;;;;;;;;11.70;99.90;;;;;;5114442;28;19912;-68
2023/07/13 11:17:24;;;;;;;;;;;11.70;99.90;;;;;;5114652;28;19947;-67
2023/07/13 11:19:53;;;;;;;;;;;11.60;99.90;;;;;;5114740;28;19911;-68
2023/07/13 11:22:24;;;;;;;;;;;11.60;99.90;;;;;;5114316;28;19969;-67
2023/07/13 11:24:53;;;;;;;;;;;11.60;99.90;;;;;;5114496;28;19908;-67
2023/07/13 11:27:40;;;;;;;;;;;11.60;99.90;;;;;;5113534;28;20061;-66
2023/07/13 11:30:07;;;;;;;;;;;11.50;99.90;;;;;;5114350;28;19912;-68
2023/07/13 11:32:35;;;;;;;;;;;11.50;99.90;;;;;;5114467;28;19908;-67
2023/07/13 11:35:01;;;;;;;;;;;11.40;99.90;;;;;;5114511;28;19907;-68
2023/07/13 11:37:29;;;;;;;;;;;11.40;99.90;;;;;;5114221;28;19911;-69
2023/07/13 11:39:56;;;;;;;;;;;11.40;99.90;;;;;;5114198;28;20322;-69
2023/07/13 11:42:23;;;;;;;;;;;11.40;99.90;;;;;;5114105;28;20272;-67
2023/07/13 11:44:51;;;;;;;;;;;11.40;99.90;;;;;;5114218;28;19908;-67
2023/07/13 11:47:20;;;;;;;;;;;11.40;99.90;;;;;;5114257;28;19960;-66
2023/07/13 11:49:52;;;;;;;;;;;11.40;99.90;;;;;;5113786;28;20000;-68
2023/07/13 11:52:21;;;;;;;;;;;11.50;99.90;;;;;;5113891;28;19915;-68
2023/07/13 11:54:56;;;;;;;;;;;11.40;99.90;;;;;;5113812;28;20351;-66
2023/07/13 11:57:27;;;;;;;;;;;11.40;99.90;;;;;;5113816;28;19972;-69
2023/07/13 11:59:55;;;;;;;;;;;11.40;99.90;;;;;;5113756;28;19908;-67
2023/07/13 12:02:28;;;;;;;;;;;11.40;99.90;;;;;;5113639;28;19994;-66
2023/07/13 12:04:55;;;;;;;;;;;11.30;99.90;;;;;;5113939;28;19908;-68
2023/07/13 12:07:22;;;;;;;;;;;11.30;99.90;;;;;;5113853;28;19959;-66
2023/07/13 12:09:50;;;;;;;;;;;11.30;99.90;;;;;;5113723;28;20372;-69
2023/07/13 12:12:21;;;;;;;;;;;11.20;99.90;;;;;;5113845;28;19908;-68
2023/07/13 12:14:51;;;;;;;;;;;11.20;99.90;;;;;;5095430;28;20253;-65
2023/07/13 12:17:22;;;;;;;;;;;11.20;99.90;;;;;;5113671;28;19915;-69
2023/07/13 12:19:49;;;;;;;;;;;11.10;99.90;;;;;;5113633;28;19923;-67
2023/07/13 12:22:18;;;;;;;;;;;11.10;99.90;;;;;;5113658;28;19937;-66
2023/07/13 12:24:45;;;;;;;;;;;11.10;99.90;;;;;;5113502;28;19911;-64
2023/07/13 12:27:38;;;;;;;;;;;11.10;99.90;;;;;;5113583;28;19946;-67
2023/07/13 12:30:06;;;;;;;;;;;11.00;99.90;;;;;;5110491;28;20429;-68
2023/07/13 12:32:32;;;;;;;;;;;11.00;99.90;;;;;;5113693;28;19954;-67
2023/07/13 12:35:25;;;;;;;;;;;10.90;99.90;;;;;;5113548;28;19907;-67
2023/07/13 12:37:52;;;;;;;;;;;10.90;99.90;;;;;;5110279;28;19914;-67
2023/07/13 12:40:22;;;;;;;;;;;10.80;99.90;;;;;;5113241;28;20423;-67
2023/07/13 12:42:49;;;;;;;;;;;10.90;99.90;;;;;;5112847;28;19984;-66
2023/07/13 12:45:23;;;;;;;;;;;10.80;99.90;;;;;;5113166;28;20288;-66
2023/07/13 12:47:53;;;;;;;;;;;10.80;99.90;;;;;;5113308;28;19908;-67
2023/07/13 12:50:21;;;;;;;;;;;10.90;99.90;;;;;;5112880;28;19907;-67
2023/07/13 12:52:57;;;;;;;;;;;10.80;99.90;;;;;;5113003;28;19911;-64
2023/07/13 12:55:24;;;;;;;;;;;10.80;99.90;;;;;;5112928;28;19960;-66
2023/07/13 12:57:56;;;;;;;;;;;10.80;99.90;;;;;;5113182;28;20321;-63
2023/07/13 13:00:24;;;;;;;;;;;10.70;99.90;;;;;;5112898;28;20279;-64
2023/07/13 13:02:52;;;;;;;;;;;10.70;99.90;;;;;;5113056;28;20288;-64
2023/07/13 13:05:23;;;;;;;;;;;10.70;99.90;;;;;;5113130;28;19914;-66
2023/07/13 13:07:50;;;;;;;;;;;10.70;99.90;;;;;;5112906;28;19907;-64
2023/07/13 13:10:16;;;;;;;;;;;10.70;99.90;;;;;;5113153;28;19908;-64
2023/07/13 13:12:43;;;;;;;;;;;10.70;99.90;;;;;;5113078;28;19931;-67
2023/07/13 13:15:11;;;;;;;;;;;10.70;99.90;;;;;;5113157;28;19947;-66
2023/07/13 13:17:38;;;;;;;;;;;10.70;99.90;;;;;;5113034;28;19918;-66
2023/07/13 13:20:18;;;;;;;;;;;10.60;99.90;;;;;;5112541;28;19915;-67
2023/07/13 13:22:45;;;;;;;;;;;10.60;99.90;;;;;;5113030;28;20364;-64
2023/07/13 13:25:12;;;;;;;;;;;10.60;99.90;;;;;;5113048;28;19911;-64
2023/07/13 13:27:43;;;;;;;;;;;10.50;99.90;;;;;;5113493;28;19908;-63
2023/07/13 13:30:14;;;;;;;;;;;10.50;99.90;;;;;;5112882;28;19908;-65
2023/07/13 13:32:41;;;;;;;;;;;10.60;99.90;;;;;;5112926;28;20371;-63
2023/07/13 13:35:17;;;;;;;;;;;10.50;99.90;;;;;;5112879;28;20348;-65
2023/07/13 13:37:45;;;;;;;;;;;10.50;99.90;;;;;;5113128;28;19947;-66
2023/07/13 13:40:22;;;;;;;;;;;10.50;99.90;;;;;;5112886;28;19912;-64
2023/07/13 13:42:50;;;;;;;;;;;10.50;99.90;;;;;;5112538;28;19931;-66
2023/07/13 13:45:17;;;;;;;;;;;10.50;99.90;;;;;;5112677;28;20002;-64
2023/07/13 13:47:44;;;;;;;;;;;10.50;99.90;;;;;;5112992;28;19908;-64
2023/07/13 13:50:16;;;;;;;;;;;10.40;99.90;;;;;;5113921;28;19919;-63
2023/07/13 13:52:43;;;;;;;;;;;10.50;99.90;;;;;;5116850;28;20264;-65
2023/07/13 13:55:14;;;;;;;;;;;10.30;99.90;;;;;;5116371;28;19908;-65
2023/07/13 13:57:41;;;;;;;;;;;10.40;99.90;;;;;;5116350;28;19953;-65
2023/07/13 14:00:11;;;;;;;;;;;10.40;99.90;;;;;;5116222;28;19907;-64
2023/07/13 14:02:38;;;;;;;;;;;10.30;99.90;;;;;;5115877;28;20080;-62
2023/07/13 14:05:07;;;;;;;;;;;10.30;99.90;;;;;;5116042;28;19908;-64
2023/07/13 14:07:34;;;;;;;;;;;10.40;99.90;;;;;;5115888;28;20368;-64
2023/07/13 14:10:01;;;;;;;;;;;10.30;99.90;;;;;;5115616;28;19912;-64
2023/07/13 14:12:29;;;;;;;;;;;10.30;99.90;;;;;;5115802;28;19912;-63
2023/07/13 14:14:58;;;;;;;;;;;10.20;99.90;;;;;;5115935;28;19908;-64
2023/07/13 14:17:26;;;;;;;;;;;10.20;99.90;;;;;;5115657;28;19908;-63
2023/07/13 14:19:57;;;;;;;;;;;10.20;99.90;;;;;;5115429;28;19908;-64
2023/07/13 14:22:24;;;;;;;;;;;10.20;99.90;;;;;;5115222;28;19938;-65
2023/07/13 14:24:54;;;;;;;;;;;10.10;99.90;;;;;;5115683;28;19911;-63